Mackey, Indiana
Current Conditions -  °F | °C
As of 9:54 AM on Friday 24 Oct 2014 (Local Time) from KEVV Reporting Station
Overcast Overcast  
Wind Chill: 56°   Ceiling: 3400
Heat Index: 56°   Visibility: 10mi
Dew Point: 47°   Wind: 3mph
Humidity: 72%   Direction: 180°S
Pressure: 30.14"   Gusts: NA
Location:  38.25°N, 87.39°W
Report Text: KEVV 241454Z 18003KT 10SM OVC034 13/08 A3014 RMK AO2 SLP205 T01330083 53002 $
Loading
Personal Weather Stations






























Interactive Weather Map
Tropical Storm Tracking
New forecast layout! Learn more

10-Day Weather Forecast

Advertisements
Track Severe Weather on mobile